Time;durP1;ratioP1;P1;durP2;ratioP2;P2;SDS_P1;SDS_P2;PMS_P1;PMS_P2;Temp;Humidity;BMP_temperature;BMP_pressure;BME280_temperature;BME280_humidity;BME280_pressure;Samples;Min_cycle;Max_cycle;Signal;HPM_P1;HPM_P2
2023/09/02 02:17:17;;;;;;;10.30;5.35;;;14.20;1.00;;;;;;4402488;27;4804167;-72
2023/09/02 02:19:45;;;;;;;15.20;5.80;;;14.20;1.00;;;;;;5060671;28;20720;-70
2023/09/02 02:22:12;;;;;;;15.57;6.00;;;14.20;1.00;;;;;;5036459;28;20209;-71
2023/09/02 02:24:39;;;;;;;15.47;5.80;;;14.20;1.00;;;;;;5052888;28;20630;-72
2023/09/02 02:27:06;;;;;;;11.30;5.67;;;14.20;1.00;;;;;;5033724;28;20342;-72
2023/09/02 02:29:34;;;;;;;12.93;6.47;;;14.10;1.00;;;;;;5036183;28;20195;-72
2023/09/02 02:32:01;;;;;;;15.30;6.03;;;14.10;1.00;;;;;;5046884;28;20202;-72
2023/09/02 02:34:29;;;;;;;8.60;5.73;;;14.10;1.00;;;;;;5051208;28;20187;-72
2023/09/02 02:36:56;;;;;;;11.70;6.50;;;14.10;1.00;;;;;;5083545;28;20210;-72
2023/09/02 02:39:23;;;;;;;13.03;6.77;;;14.10;1.00;;;;;;5053140;28;20190;-72
2023/09/02 02:41:50;;;;;;;19.43;6.70;;;14.10;1.00;;;;;;5042886;28;20217;-72
2023/09/02 02:44:17;;;;;;;13.20;6.60;;;14.10;1.00;;;;;;5044394;28;20679;-72
2023/09/02 02:46:44;;;;;;;20.57;7.90;;;14.10;1.00;;;;;;5042723;28;20679;-73
2023/09/02 02:49:11;;;;;;;14.93;7.70;;;14.20;1.00;;;;;;5052940;28;20662;-80
2023/09/02 02:51:38;;;;;;;16.63;7.03;;;14.20;1.00;;;;;;5062800;28;20194;-79
2023/09/02 02:54:06;;;;;;;15.27;8.20;;;14.30;1.00;;;;;;5051414;28;20195;-78
2023/09/02 02:56:36;;;;;;;13.23;7.22;;;14.20;1.00;;;;;;5047989;28;20203;-76
2023/09/02 02:59:03;;;;;;;14.30;7.50;;;14.30;1.00;;;;;;5061457;28;20289;-74
2023/09/02 03:01:31;;;;;;;15.10;6.73;;;14.20;1.00;;;;;;5055772;28;20244;-76
2023/09/02 03:03:59;;;;;;;13.18;7.18;;;14.20;1.00;;;;;;5041335;28;20731;-75
2023/09/02 03:06:27;;;;;;;12.63;6.63;;;14.20;1.00;;;;;;5059392;28;20195;-71
2023/09/02 03:08:53;;;;;;;14.02;6.57;;;14.10;1.00;;;;;;5036515;28;20202;-71
2023/09/02 03:11:21;;;;;;;17.05;7.85;;;14.10;1.00;;;;;;5058035;28;20195;-70
2023/09/02 03:13:49;;;;;;;14.23;7.33;;;14.20;1.00;;;;;;5054604;28;20202;-70
2023/09/02 03:16:20;;;;;;;15.35;7.47;;;14.20;1.00;;;;;;5042021;28;20219;-70
2023/09/02 03:18:48;;;;;;;14.87;7.27;;;14.10;1.00;;;;;;5042588;28;20311;-72
2023/09/02 03:21:15;;;;;;;15.97;7.13;;;14.10;1.00;;;;;;5015461;28;20254;-74
2023/09/02 03:23:42;;;;;;;14.50;7.87;;;14.10;1.00;;;;;;5028608;28;20192;-73
2023/09/02 03:26:17;;;;;;;12.83;7.20;;;14.00;1.00;;;;;;5033869;28;20305;-72
2023/09/02 03:28:48;;;;;;;16.77;6.43;;;14.00;1.00;;;;;;5019492;28;20222;-71
2023/09/02 03:31:16;;;;;;;12.93;7.07;;;13.90;1.00;;;;;;5031983;28;20203;-73
2023/09/02 03:33:44;;;;;;;12.67;6.90;;;13.90;1.00;;;;;;5010094;28;20241;-74
2023/09/02 03:36:16;;;;;;;16.17;7.27;;;13.90;1.00;;;;;;5029897;28;20207;-72
2023/09/02 03:38:45;;;;;;;11.80;7.07;;;13.90;1.00;;;;;;5037228;28;20246;-72
2023/09/02 03:41:17;;;;;;;13.03;6.10;;;13.80;1.00;;;;;;5048289;28;20187;-72
2023/09/02 03:43:47;;;;;;;15.77;7.67;;;13.80;1.00;;;;;;5028559;28;20196;-73
2023/09/02 03:46:15;;;;;;;14.20;7.40;;;13.70;1.00;;;;;;5019391;28;20401;-73
2023/09/02 03:48:46;;;;;;;14.97;7.63;;;13.70;1.00;;;;;;5022004;28;20675;-72
2023/09/02 03:51:16;;;;;;;20.63;7.40;;;13.60;1.00;;;;;;5033933;28;20644;-74
2023/09/02 03:53:55;;;;;;;15.70;6.57;;;13.60;1.00;;;;;;5032454;28;20697;-73
2023/09/02 03:56:22;;;;;;;17.13;6.50;;;13.60;1.00;;;;;;5035131;28;20318;-72
2023/09/02 03:58:49;;;;;;;15.07;7.07;;;13.60;1.00;;;;;;5008764;28;20287;-68
2023/09/02 04:01:17;;;;;;;17.37;6.70;;;13.60;1.00;;;;;;5012825;28;20199;-70
2023/09/02 04:03:45;;;;;;;15.47;7.03;;;13.60;1.00;;;;;;5039062;28;20235;-70
2023/09/02 04:06:14;;;;;;;13.30;7.47;;;13.60;1.00;;;;;;5031099;28;20713;-70
2023/09/02 04:08:41;;;;;;;13.67;7.87;;;13.50;1.00;;;;;;5030053;28;20651;-68
2023/09/02 04:11:07;;;;;;;16.13;7.63;;;13.50;1.00;;;;;;5039259;28;20208;-67
2023/09/02 04:13:35;;;;;;;13.80;7.70;;;13.50;1.00;;;;;;5025276;28;20257;-70
2023/09/02 04:16:11;;;;;;;15.50;7.73;;;13.50;1.00;;;;;;5037555;28;20214;-71
2023/09/02 04:18:38;;;;;;;16.43;8.47;;;13.50;1.00;;;;;;5034472;28;20318;-72
2023/09/02 04:21:09;;;;;;;16.07;7.67;;;13.50;1.00;;;;;;5056665;28;20194;-72
2023/09/02 04:23:39;;;;;;;16.77;8.30;;;13.50;1.00;;;;;;5038799;28;20566;-71
2023/09/02 04:26:09;;;;;;;14.90;7.43;;;13.50;1.00;;;;;;5066954;28;20191;-72
2023/09/02 04:28:36;;;;;;;14.30;7.77;;;13.50;1.00;;;;;;5049640;28;20207;-72
2023/09/02 04:31:03;;;;;;;15.13;8.00;;;13.60;1.00;;;;;;5034311;28;20691;-70
2023/09/02 04:33:32;;;;;;;16.77;7.27;;;13.70;1.00;;;;;;5049328;28;20764;-68
2023/09/02 04:36:02;;;;;;;14.43;7.60;;;13.70;1.00;;;;;;5052393;28;20199;-68
2023/09/02 04:38:32;;;;;;;20.03;9.00;;;13.80;1.00;;;;;;5046401;28;20199;-69
2023/09/02 04:41:06;;;;;;;17.47;8.33;;;13.80;1.00;;;;;;5040828;28;20252;-70
2023/09/02 04:43:34;;;;;;;15.50;8.50;;;13.90;1.00;;;;;;5026408;28;20195;-71
2023/09/02 04:46:03;;;;;;;18.03;8.83;;;13.90;1.00;;;;;;5048337;28;20281;-69
2023/09/02 04:48:33;;;;;;;16.93;8.90;;;13.90;1.00;;;;;;5049400;28;20202;-70
2023/09/02 04:51:03;;;;;;;16.97;8.43;;;13.90;1.00;;;;;;5048151;28;20190;-70
2023/09/02 04:53:31;;;;;;;17.50;8.93;;;13.90;1.00;;;;;;5054573;28;20527;-73
2023/09/02 04:56:00;;;;;;;19.07;9.63;;;14.00;1.00;;;;;;5050187;28;20260;-73
2023/09/02 04:58:30;;;;;;;16.90;8.93;;;14.00;1.00;;;;;;5038865;28;20252;-74
2023/09/02 05:01:07;;;;;;;18.07;9.30;;;14.10;1.00;;;;;;5056758;28;20663;-69
2023/09/02 05:03:35;;;;;;;14.90;8.33;;;14.10;1.00;;;;;;5049110;28;20218;-72
2023/09/02 05:06:02;;;;;;;17.83;8.67;;;14.10;1.00;;;;;;5051255;28;20192;-72
2023/09/02 05:08:33;;;;;;;18.30;8.53;;;14.20;1.00;;;;;;5053672;28;20229;-72
2023/09/02 05:11:03;;;;;;;22.53;9.27;;;14.20;1.00;;;;;;5033924;28;20202;-69
2023/09/02 05:13:31;;;;;;;23.03;9.43;;;14.30;1.00;;;;;;5050629;28;20550;-71
2023/09/02 05:15:58;;;;;;;22.37;10.47;;;14.30;1.00;;;;;;5056811;28;20199;-72
2023/09/02 05:18:25;;;;;;;19.00;9.53;;;14.30;1.00;;;;;;5053535;28;20759;-71
2023/09/02 05:20:58;;;;;;;21.30;9.07;;;14.30;1.00;;;;;;5061000;28;20227;-72
2023/09/02 05:23:25;;;;;;;22.87;9.70;;;14.30;1.00;;;;;;5049286;28;20682;-73
2023/09/02 05:25:55;;;;;;;25.43;11.40;;;14.40;99.90;;;;;;5053996;28;20681;-72
2023/09/02 05:28:24;;;;;;;22.10;9.87;;;14.40;99.90;;;;;;5053345;28;20206;-73
2023/09/02 05:30:54;;;;;;;23.87;10.57;;;14.40;99.90;;;;;;5037844;28;20224;-73
2023/09/02 05:33:21;;;;;;;29.87;10.63;;;14.50;99.90;;;;;;5047187;28;20738;-76
2023/09/02 05:35:48;;;;;;;22.17;9.77;;;14.50;99.90;;;;;;5066159;28;20288;-76
2023/09/02 05:38:15;;;;;;;28.93;9.83;;;14.60;99.90;;;;;;5052899;28;20254;-74
2023/09/02 05:40:43;;;;;;;22.83;10.13;;;14.70;99.90;;;;;;5051213;28;20187;-76
2023/09/02 05:43:10;;;;;;;25.03;10.10;;;14.80;99.90;;;;;;5056481;28;20199;-74
2023/09/02 05:45:37;;;;;;;24.90;9.38;;;14.80;1.00;;;;;;5053137;28;20705;-73
2023/09/02 05:48:05;;;;;;;24.17;9.90;;;15.00;1.00;;;;;;5082024;28;20207;-75
2023/09/02 05:50:32;;;;;;;21.98;9.75;;;15.10;1.00;;;;;;5049899;28;20559;-76
2023/09/02 05:53:00;;;;;;;18.77;9.13;;;15.20;1.00;;;;;;5053766;28;20697;-75
2023/09/02 05:55:27;;;;;;;25.58;10.38;;;15.40;1.00;;;;;;5060608;28;20701;-74
2023/09/02 05:57:54;;;;;;;19.13;8.55;;;15.50;1.00;;;;;;5055564;28;20222;-74
2023/09/02 06:00:21;;;;;;;22.45;9.27;;;15.50;1.00;;;;;;5055262;28;20270;-74
2023/09/02 06:02:48;;;;;;;19.13;10.10;;;15.50;1.00;;;;;;5034799;28;20697;-75
2023/09/02 06:05:15;;;;;;;19.25;9.63;;;15.50;1.00;;;;;;5069630;28;20191;-75
2023/09/02 06:07:42;;;;;;;17.98;9.40;;;15.60;99.90;;;;;;5050055;28;20205;-75
2023/09/02 06:10:10;;;;;;;16.50;9.38;;;15.60;99.90;;;;;;5032126;28;20199;-75
2023/09/02 06:12:37;;;;;;;16.30;9.85;;;15.60;99.90;;;;;;5066808;28;20829;-75
2023/09/02 06:15:07;;;;;;;20.70;10.00;;;15.70;99.90;;;;;;5046976;28;20203;-74
2023/09/02 06:17:34;;;;;;;19.25;9.70;;;15.80;99.90;;;;;;5056256;28;20271;-75
2023/09/02 06:20:02;;;;;;;21.25;9.63;;;15.80;99.90;;;;;;5051929;28;20208;-74
2023/09/02 06:22:29;;;;;;;16.33;9.45;;;15.90;99.90;;;;;;5053360;28;20539;-75
2023/09/02 06:24:55;;;;;;;18.15;9.93;;;16.00;1.00;;;;;;5054522;28;20229;-70
2023/09/02 06:27:22;;;;;;;19.70;9.63;;;16.10;1.00;;;;;;5062505;28;20200;-70
2023/09/02 06:29:50;;;;;;;19.35;9.38;;;16.30;1.00;;;;;;5067266;28;20282;-71
2023/09/02 06:32:17;;;;;;;20.75;9.85;;;16.60;1.00;;;;;;5069745;28;20190;-71
2023/09/02 06:34:44;;;;;;;17.52;9.85;;;17.10;1.00;;;;;;5051013;28;20194;-70
2023/09/02 06:37:11;;;;;;;15.95;9.35;;;17.40;1.00;;;;;;5050501;28;20574;-70
2023/09/02 06:39:38;;;;;;;10.15;7.15;;;17.30;1.00;;;;;;5051700;28;20289;-72
2023/09/02 06:42:05;;;;;;;11.70;7.28;;;17.00;1.00;;;;;;5070886;28;20195;-72
2023/09/02 06:44:34;;;;;;;12.07;7.25;;;17.00;1.00;;;;;;5064073;28;20200;-71
2023/09/02 06:47:01;;;;;;;11.05;7.28;;;17.10;1.00;;;;;;5064872;28;20281;-73
2023/09/02 06:49:32;;;;;;;14.95;7.25;;;16.90;1.00;;;;;;5053542;28;20280;-72
2023/09/02 06:51:59;;;;;;;11.70;7.50;;;16.80;1.00;;;;;;5072793;28;20716;-72
2023/09/02 06:54:26;;;;;;;10.93;6.88;;;16.90;1.00;;;;;;5052030;28;20203;-72
2023/09/02 06:56:53;;;;;;;10.05;6.93;;;17.10;1.00;;;;;;5068648;28;20252;-71
2023/09/02 06:59:20;;;;;;;16.45;8.05;;;17.30;1.00;;;;;;5064815;28;20278;-70
2023/09/02 07:01:47;;;;;;;10.80;7.68;;;17.40;1.00;;;;;;5069621;28;20182;-70
2023/09/02 07:04:14;;;;;;;11.60;7.03;;;17.40;1.00;;;;;;5051166;28;20228;-70
2023/09/02 07:06:41;;;;;;;12.35;7.70;;;17.50;1.00;;;;;;5066472;28;20210;-70
2023/09/02 07:09:09;;;;;;;12.40;7.15;;;17.60;99.90;;;;;;5057505;28;20194;-70
2023/09/02 07:11:36;;;;;;;10.45;7.40;;;17.90;99.90;;;;;;5062190;28;20642;-70
2023/09/02 07:14:03;;;;;;;14.13;6.97;;;18.20;99.90;;;;;;5049005;28;20684;-70
2023/09/02 07:16:30;;;;;;;10.27;7.28;;;18.30;99.90;;;;;;5054646;28;20983;-69
2023/09/02 07:18:58;;;;;;;9.38;7.05;;;18.60;99.90;;;;;;5029473;28;20225;-70
2023/09/02 07:21:25;;;;;;;10.30;6.60;;;18.80;99.90;;;;;;5020123;28;20192;-70
2023/09/02 07:23:52;;;;;;;9.27;6.35;;;19.50;99.90;;;;;;5041136;28;20271;-69
2023/09/02 07:26:27;;;;;;;10.10;5.90;;;19.90;99.90;;;;;;5035497;28;20200;-68
2023/09/02 07:28:55;;;;;;;9.00;6.60;;;19.60;99.90;;;;;;5045262;28;20682;-67
2023/09/02 07:31:22;;;;;;;9.95;7.13;;;19.20;99.90;;;;;;5033401;28;20203;-68
2023/09/02 07:33:49;;;;;;;7.80;6.70;;;18.90;99.90;;;;;;5044477;28;20263;-67
2023/09/02 07:36:16;;;;;;;9.45;6.97;;;18.80;99.90;;;;;;5042602;28;20215;-67
2023/09/02 07:38:46;;;;;;;11.60;6.60;;;19.00;99.90;;;;;;5028791;28;20510;-67
2023/09/02 07:41:20;;;;;;;9.07;6.15;;;19.60;99.90;;;;;;5030005;28;20192;-70
2023/09/02 07:44:02;;;;;;;10.60;5.78;;;19.70;99.90;;;;;;5029217;28;20206;-69
2023/09/02 07:46:34;;;;;;;7.38;5.07;;;19.80;99.90;;;;;;5015562;28;20715;-69
2023/09/02 07:49:06;;;;;;;6.35;5.32;;;20.40;99.90;;;;;;5031321;28;20191;-70
2023/09/02 07:51:38;;;;;;;6.00;4.80;;;21.50;99.90;;;;;;5043073;28;20184;-70
2023/09/02 07:54:09;;;;;;;5.53;4.78;;;21.60;99.90;;;;;;5025669;28;20663;-70
2023/09/02 07:56:38;;;;;;;9.50;5.45;;;21.50;99.90;;;;;;5019152;28;20525;-72
2023/09/02 07:59:11;;;;;;;8.48;5.93;;;21.80;99.90;;;;;;5041070;28;20760;-70
2023/09/02 08:01:39;;;;;;;7.38;5.10;;;22.00;99.90;;;;;;5021798;28;20298;-72
2023/09/02 08:04:20;;;;;;;6.30;4.88;;;22.30;99.90;;;;;;5016752;28;20227;-73
2023/09/02 08:06:48;;;;;;;7.78;5.43;;;22.00;99.90;;;;;;5043161;28;20195;-71
2023/09/02 08:09:34;;;;;;;6.45;5.35;;;21.30;99.90;;;;;;5043289;28;20191;-68
2023/09/02 08:12:12;;;;;;;6.13;4.90;;;21.00;99.90;;;;;;5041938;28;20222;-70
2023/09/02 08:14:40;;;;;;;7.35;5.63;;;21.00;99.90;;;;;;5014674;28;20196;-70
2023/09/02 08:17:09;;;;;;;7.40;5.30;;;20.90;99.90;;;;;;5020864;28;20216;-70
2023/09/02 08:19:49;;;;;;;7.00;5.10;;;20.40;99.90;;;;;;5024043;28;20199;-71
2023/09/02 08:22:21;;;;;;;7.43;5.30;;;20.40;99.90;;;;;;5019994;28;20205;-72
2023/09/02 08:25:00;;;;;;;6.60;4.85;;;20.10;99.90;;;;;;5047199;28;20204;-68
2023/09/02 08:27:29;;;;;;;6.53;5.28;;;20.30;99.90;;;;;;5013374;28;20720;-68
2023/09/02 08:29:57;;;;;;;6.40;4.82;;;20.50;99.90;;;;;;5011504;28;20207;-70
2023/09/02 08:32:24;;;;;;;8.80;5.35;;;20.60;99.90;;;;;;5042492;28;20191;-71
2023/09/02 08:34:54;;;;;;;6.70;4.47;;;20.80;99.90;;;;;;5018845;28;20282;-69
2023/09/02 08:37:24;;;;;;;6.55;4.57;;;20.70;99.90;;;;;;5048535;28;20210;-70
2023/09/02 08:39:51;;;;;;;6.18;4.90;;;20.60;99.90;;;;;;5042516;28;20713;-71
2023/09/02 08:42:18;;;;;;;6.80;4.80;;;21.00;99.90;;;;;;5009771;28;20215;-69
2023/09/02 08:44:48;;;;;;;7.43;5.38;;;21.20;99.90;;;;;;5027652;28;20649;-69
2023/09/02 08:47:17;;;;;;;6.82;5.30;;;21.90;99.90;;;;;;5031453;28;20571;-67
2023/09/02 08:49:45;;;;;;;5.03;4.13;;;22.80;99.90;;;;;;5042170;28;20191;-66
2023/09/02 08:52:15;;;;;;;6.45;4.80;;;23.80;99.90;;;;;;5019358;28;20200;-66
2023/09/02 08:54:44;;;;;;;5.88;4.50;;;23.90;99.90;;;;;;5039117;28;20187;-66
2023/09/02 08:57:15;;;;;;;5.13;4.63;;;23.80;99.90;;;;;;5045925;28;20199;-66
2023/09/02 08:59:45;;;;;;;4.97;4.25;;;23.30;99.90;;;;;;5017194;28;20221;-67
2023/09/02 09:02:13;;;;;;;5.22;4.63;;;22.90;99.90;;;;;;5022635;28;20279;-68
2023/09/02 09:04:41;;;;;;;7.35;4.60;;;23.10;99.90;;;;;;5014487;28;20360;-68
2023/09/02 09:07:09;;;;;;;7.40;5.07;;;23.70;99.90;;;;;;5044013;28;20219;-68
2023/09/02 09:09:39;;;;;;;6.35;4.82;;;25.20;99.90;;;;;;5038002;28;20270;-69
2023/09/02 09:12:07;;;;;;;8.95;5.00;;;24.60;99.90;;;;;;5039631;28;20622;-70
2023/09/02 09:14:37;;;;;;;5.53;4.40;;;23.00;99.90;;;;;;5039034;28;20259;-71
2023/09/02 09:17:05;;;;;;;5.78;4.43;;;23.20;99.90;;;;;;5048407;28;20258;-70
2023/09/02 09:19:33;;;;;;;5.53;4.05;;;23.70;99.90;;;;;;5061380;28;20693;-71
2023/09/02 09:22:02;;;;;;;4.95;3.97;;;23.40;99.90;;;;;;5062754;28;20724;-70
2023/09/02 09:24:29;;;;;;;5.65;4.38;;;23.80;99.90;;;;;;5062817;28;20195;-68
2023/09/02 09:26:59;;;;;;;4.22;3.70;;;24.20;99.90;;;;;;5058063;28;20199;-68
2023/09/02 09:29:26;;;;;;;5.53;4.35;;;23.90;99.90;;;;;;5058641;28;20674;-68
2023/09/02 09:32:13;;;;;;;5.28;3.83;;;23.70;99.90;;;;;;5061977;28;20304;-68
2023/09/02 09:34:42;;;;;;;5.40;4.25;;;23.90;99.90;;;;;;5058336;28;20214;-68
2023/09/02 09:37:10;;;;;;;6.15;4.35;;;23.30;99.90;;;;;;5062616;28;20650;-68
2023/09/02 09:39:40;;;;;;;5.38;3.50;;;23.60;99.90;;;;;;5059244;28;20190;-66
2023/09/02 09:42:08;;;;;;;5.20;4.28;;;23.70;99.90;;;;;;5041966;28;20357;-67
2023/09/02 09:44:54;;;;;;;8.85;6.65;;;22.30;99.90;;;;;;5065774;28;20195;-66
2023/09/02 09:47:22;;;;;;;4.95;4.20;;;22.50;99.90;;;;;;5064268;28;20579;-66
2023/09/02 09:49:50;;;;;;;4.72;3.63;;;22.90;99.90;;;;;;5047726;28;20272;-66
2023/09/02 09:52:20;;;;;;;5.30;3.97;;;24.30;99.90;;;;;;5066671;28;20221;-67
2023/09/02 09:54:52;;;;;;;7.35;5.32;;;25.20;99.90;;;;;;5046118;28;20265;-67
2023/09/02 09:57:34;;;;;;;13.38;9.13;;;25.70;99.90;;;;;;5068037;28;21146;-67
2023/09/02 10:00:02;;;;;;;11.63;8.05;;;24.70;99.90;;;;;;5052277;28;20217;-66
2023/09/02 10:02:31;;;;;;;6.68;4.90;;;24.50;99.90;;;;;;5070869;28;20227;-66
2023/09/02 10:05:00;;;;;;;5.28;4.70;;;24.60;99.90;;;;;;5044419;28;20230;-67
2023/09/02 10:07:32;;;;;;;7.38;6.07;;;24.80;99.90;;;;;;5045835;28;20231;-67
2023/09/02 10:10:01;;;;;;;4.90;3.53;;;26.80;99.90;;;;;;5063758;28;20671;-64
2023/09/02 10:12:34;;;;;;;4.22;3.35;;;29.10;99.90;;;;;;5066676;28;20288;-66
2023/09/02 10:15:06;;;;;;;4.45;3.78;;;30.20;99.90;;;;;;5061806;28;20191;-66
2023/09/02 10:17:35;;;;;;;9.63;5.38;;;30.50;99.90;;;;;;5069351;28;20305;-66
2023/09/02 10:20:03;;;;;;;4.78;4.30;;;27.80;99.90;;;;;;5067068;28;20277;-65
2023/09/02 10:22:32;;;;;;;6.07;4.18;;;26.90;99.90;;;;;;5067766;28;20234;-65
2023/09/02 10:25:18;;;;;;;5.05;4.25;;;28.20;99.90;;;;;;5050017;28;20198;-66
2023/09/02 10:27:52;;;;;;;3.90;3.60;;;28.50;99.90;;;;;;5045433;28;20195;-66
2023/09/02 10:30:29;;;;;;;5.43;3.92;;;28.50;99.90;;;;;;5066628;28;20564;-65
2023/09/02 10:33:08;;;;;;;8.85;6.68;;;30.20;99.90;;;;;;5064696;28;20290;-66
2023/09/02 10:35:42;;;;;;;4.32;3.95;;;28.40;99.90;;;;;;5032808;28;20194;-66
2023/09/02 10:38:15;;;;;;;3.70;3.17;;;29.60;99.90;;;;;;5061531;28;20235;-66
2023/09/02 10:40:46;;;;;;;4.32;3.60;;;31.90;99.90;;;;;;5066242;28;20186;-67
2023/09/02 10:43:13;;;;;;;3.65;3.35;;;33.20;99.90;;;;;;5049247;28;20183;-66
2023/09/02 10:45:44;;;;;;;5.30;3.92;;;33.00;99.90;;;;;;5048165;28;20187;-66
2023/09/02 10:48:12;;;;;;;4.22;3.75;;;33.90;99.90;;;;;;5060033;28;20289;-66
2023/09/02 10:50:39;;;;;;;5.60;4.97;;;34.70;99.90;;;;;;5047915;28;20207;-67
2023/09/02 10:53:06;;;;;;;4.53;3.95;;;32.90;99.90;;;;;;5069152;28;20650;-67
2023/09/02 10:56:01;;;;;;;3.80;3.50;;;33.50;99.90;;;;;;5060184;28;20186;-67
2023/09/02 10:58:47;;;;;;;4.25;3.85;;;34.30;99.90;;;;;;5046654;28;21244;-70
2023/09/02 11:01:14;;;;;;;3.40;3.13;;;33.50;99.90;;;;;;5046703;28;20190;-68
2023/09/02 11:03:48;;;;;;;4.00;3.50;;;34.50;99.90;;;;;;5045286;28;20210;-67
2023/09/02 11:06:18;;;;;;;4.05;3.30;;;34.90;99.90;;;;;;5045471;28;20265;-66
2023/09/02 11:08:51;;;;;;;3.50;3.20;;;34.60;99.90;;;;;;5032568;28;20195;-66
2023/09/02 11:11:19;;;;;;;3.78;3.47;;;35.20;99.90;;;;;;5064739;28;20532;-70
2023/09/02 11:14:08;;;;;;;4.30;4.00;;;33.00;99.90;;;;;;5046648;28;20204;-66
2023/09/02 11:16:38;;;;;;;5.07;4.63;;;30.60;99.90;;;;;;5064647;28;20182;-69
2023/09/02 11:19:09;;;;;;;4.45;4.00;;;30.60;99.90;;;;;;5052608;28;20234;-69
2023/09/02 11:21:38;;;;;;;3.50;3.20;;;29.50;99.90;;;;;;5047390;28;20434;-69
2023/09/02 11:24:19;;;;;;;3.58;3.28;;;30.70;99.90;;;;;;5066121;28;20595;-67
2023/09/02 11:26:51;;;;;;;3.95;3.55;;;32.20;99.90;;;;;;5063747;28;20593;-68
2023/09/02 11:29:28;;;;;;;5.68;3.70;;;32.60;99.90;;;;;;5063437;28;20225;-69
2023/09/02 11:32:03;;;;;;;3.47;3.17;;;31.50;99.90;;;;;;5050333;28;21144;-69
2023/09/02 11:34:34;;;;;;;4.13;3.17;;;30.80;99.90;;;;;;5047035;28;20190;-69
2023/09/02 11:37:03;;;;;;;3.47;2.78;;;30.40;99.90;;;;;;5068215;28;20211;-71
2023/09/02 11:39:32;;;;;;;3.60;3.30;;;30.40;99.90;;;;;;5032638;28;20778;-68
2023/09/02 11:42:11;;;;;;;3.72;3.42;;;30.10;99.90;;;;;;5048686;28;20265;-71
2023/09/02 11:44:38;;;;;;;4.10;3.70;;;30.30;99.90;;;;;;5057051;28;20202;-68
2023/09/02 11:47:13;;;;;;;3.40;3.08;;;29.00;99.90;;;;;;5045526;28;20272;-67
2023/09/02 11:49:41;;;;;;;6.63;3.45;;;29.90;99.90;;;;;;5065065;28;20194;-67
2023/09/02 11:52:09;;;;;;;3.28;3.00;;;31.40;99.90;;;;;;5029294;28;20223;-70
2023/09/02 11:54:37;;;;;;;3.40;2.50;;;30.50;99.90;;;;;;5063549;28;20548;-66
2023/09/02 11:57:04;;;;;;;3.60;2.55;;;31.80;99.90;;;;;;5059142;28;20194;-67
2023/09/02 11:59:31;;;;;;;3.40;3.10;;;31.80;99.90;;;;;;5062431;28;20738;-68
2023/09/02 12:02:06;;;;;;;3.28;2.97;;;31.60;99.90;;;;;;5048485;28;20207;-70
2023/09/02 12:04:37;;;;;;;3.17;2.88;;;31.20;99.90;;;;;;5042425;28;20674;-71
2023/09/02 12:07:13;;;;;;;3.15;2.85;;;31.70;99.90;;;;;;5049182;28;20640;-70
2023/09/02 12:09:46;;;;;;;3.08;2.70;;;32.00;99.90;;;;;;5051100;28;20604;-70
2023/09/02 12:12:16;;;;;;;2.80;2.60;;;32.10;99.90;;;;;;5045873;28;20216;-69
2023/09/02 12:14:44;;;;;;;3.03;2.72;;;32.00;99.90;;;;;;5063536;28;20268;-68
2023/09/02 12:17:11;;;;;;;3.38;3.10;;;31.60;99.90;;;;;;5043863;28;20202;-67
2023/09/02 12:19:39;;;;;;;3.40;3.10;;;30.70;99.90;;;;;;5063669;28;20214;-69
2023/09/02 12:22:07;;;;;;;3.00;2.80;;;29.60;99.90;;;;;;5049306;28;20194;-68
2023/09/02 12:24:34;;;;;;;3.38;3.08;;;29.20;99.90;;;;;;5047502;28;20191;-69
2023/09/02 12:27:02;;;;;;;3.13;2.65;;;28.80;99.90;;;;;;5063966;28;20194;-66
2023/09/02 12:29:29;;;;;;;2.92;2.72;;;29.20;99.90;;;;;;5061485;28;20195;-66
2023/09/02 12:31:58;;;;;;;4.93;3.22;;;30.20;99.90;;;;;;5063692;28;20215;-65
2023/09/02 12:34:33;;;;;;;3.88;2.83;;;30.20;99.90;;;;;;5047615;28;20678;-65
2023/09/02 12:37:17;;;;;;;3.35;3.05;;;29.30;99.90;;;;;;5044575;28;20689;-65
2023/09/02 12:39:44;;;;;;;2.53;2.33;;;29.90;99.90;;;;;;5052988;28;20207;-64
2023/09/02 12:42:25;;;;;;;3.05;2.75;;;30.70;99.90;;;;;;5048965;28;20191;-61
2023/09/02 12:44:57;;;;;;;3.22;3.03;;;29.90;99.90;;;;;;5060782;28;20205;-61
2023/09/02 12:47:28;;;;;;;3.50;3.20;;;28.80;99.90;;;;;;5066703;28;20607;-61
2023/09/02 12:49:57;;;;;;;4.15;3.75;;;28.20;99.90;;;;;;5048470;28;20190;-62
2023/09/02 12:52:26;;;;;;;5.28;4.78;;;27.20;99.90;;;;;;5066677;28;20719;-64
2023/09/02 12:54:56;;;;;;;4.30;3.80;;;26.70;99.90;;;;;;5066355;28;20249;-63
2023/09/02 12:57:24;;;;;;;6.03;4.40;;;26.10;99.90;;;;;;5048207;28;20252;-63
2023/09/02 12:59:51;;;;;;;6.70;4.60;;;26.10;99.90;;;;;;5066167;28;20219;-62
2023/09/02 13:02:19;;;;;;;5.47;4.97;;;26.10;99.90;;;;;;5048563;28;20285;-62
2023/09/02 13:04:46;;;;;;;7.13;6.43;;;26.30;99.90;;;;;;5048415;28;20222;-62
2023/09/02 13:07:17;;;;;;;5.15;4.72;;;26.70;99.90;;;;;;5066131;28;20190;-62
2023/09/02 13:09:45;;;;;;;6.43;5.78;;;27.00;99.90;;;;;;5032200;28;20203;-62
2023/09/02 13:12:12;;;;;;;6.05;5.50;;;26.60;99.90;;;;;;5048494;28;20195;-62
2023/09/02 13:14:39;;;;;;;6.88;6.18;;;26.90;99.90;;;;;;5066318;28;20213;-63
2023/09/02 13:17:06;;;;;;;7.57;6.88;;;26.70;99.90;;;;;;5066647;28;20201;-63
2023/09/02 13:19:34;;;;;;;10.20;7.43;;;26.40;99.90;;;;;;5051939;28;20223;-64
2023/09/02 13:22:02;;;;;;;9.93;8.50;;;25.70;99.90;;;;;;5052285;28;20698;-63
2023/09/02 13:24:30;;;;;;;9.13;8.00;;;25.40;99.90;;;;;;5035696;28;20257;-64
2023/09/02 13:26:59;;;;;;;10.50;8.77;;;25.00;99.90;;;;;;5069874;28;20726;-63
2023/09/02 13:29:27;;;;;;;14.63;10.20;;;24.60;99.90;;;;;;5052383;28;20675;-64
2023/09/02 13:31:57;;;;;;;12.43;9.65;;;24.30;99.90;;;;;;5069753;28;20203;-64
2023/09/02 13:34:34;;;;;;;13.13;9.82;;;24.30;99.90;;;;;;5052160;28;20205;-63
2023/09/02 13:37:14;;;;;;;12.73;10.15;;;24.30;99.90;;;;;;5069819;28;20446;-64
2023/09/02 13:39:42;;;;;;;16.30;11.00;;;24.20;99.90;;;;;;5070122;28;20218;-64
2023/09/02 13:42:20;;;;;;;16.52;10.52;;;24.10;99.90;;;;;;5068532;28;20608;-63
2023/09/02 13:44:47;;;;;;;14.73;10.57;;;24.00;99.90;;;;;;5065559;28;20201;-64
2023/09/02 13:47:17;;;;;;;16.65;11.43;;;24.20;99.90;;;;;;5068588;28;20191;-64
2023/09/02 13:49:53;;;;;;;16.45;11.40;;;24.10;99.90;;;;;;5038709;28;20248;-63
2023/09/02 13:52:23;;;;;;;17.35;12.27;;;24.20;99.90;;;;;;5051640;28;20206;-64
2023/09/02 13:54:54;;;;;;;18.77;11.27;;;24.20;99.90;;;;;;5051475;28;20198;-64
2023/09/02 13:57:23;;;;;;;20.65;11.57;;;24.10;99.90;;;;;;5069453;28;20183;-62
2023/09/02 13:59:59;;;;;;;15.82;11.85;;;24.10;99.90;;;;;;5051226;28;20210;-63
2023/09/02 14:02:26;;;;;;;19.88;12.45;;;23.80;99.90;;;;;;5051459;28;20194;-63
2023/09/02 14:04:56;;;;;;;20.48;12.57;;;24.00;99.90;;;;;;5068452;28;20210;-64
2023/09/02 14:07:23;;;;;;;20.40;12.30;;;24.10;99.90;;;;;;5069244;28;20711;-63
2023/09/02 14:09:50;;;;;;;15.48;11.02;;;24.00;99.90;;;;;;5069663;28;20226;-63
2023/09/02 14:12:21;;;;;;;18.83;12.32;;;24.00;99.90;;;;;;5069810;28;20609;-63
2023/09/02 14:14:48;;;;;;;19.98;13.02;;;23.90;99.90;;;;;;5050750;28;20195;-65
2023/09/02 14:17:15;;;;;;;18.15;11.90;;;24.00;99.90;;;;;;5068409;28;20201;-63
2023/09/02 14:19:42;;;;;;;19.98;12.02;;;24.00;99.90;;;;;;5069565;28;20240;-63
2023/09/02 14:22:09;;;;;;;19.23;12.95;;;24.10;99.90;;;;;;5069285;28;20187;-64
2023/09/02 14:24:36;;;;;;;23.13;14.95;;;24.10;99.90;;;;;;5051864;28;20198;-65
2023/09/02 14:27:06;;;;;;;22.20;14.55;;;23.90;99.90;;;;;;5069575;28;20187;-62
2023/09/02 14:29:33;;;;;;;23.02;14.65;;;23.80;99.90;;;;;;5049430;28;20199;-61
2023/09/02 14:32:00;;;;;;;18.40;13.55;;;23.40;99.90;;;;;;5050851;28;20205;-62
2023/09/02 14:34:28;;;;;;;19.45;13.77;;;23.40;99.90;;;;;;5069274;28;20655;-62
2023/09/02 14:36:55;;;;;;;18.35;13.20;;;23.60;99.90;;;;;;5069454;28;20325;-62
2023/09/02 14:39:23;;;;;;;17.73;13.18;;;23.70;99.90;;;;;;5068643;28;20222;-61
2023/09/02 14:41:50;;;;;;;19.08;13.25;;;23.70;99.90;;;;;;5051200;28;20713;-63
2023/09/02 14:44:16;;;;;;;24.67;13.85;;;23.80;99.90;;;;;;5050707;28;20589;-63
2023/09/02 14:46:45;;;;;;;23.10;14.82;;;23.90;99.90;;;;;;5068835;28;20647;-64
2023/09/02 14:49:14;;;;;;;19.77;13.75;;;23.50;99.90;;;;;;5050974;28;20285;-61
2023/09/02 14:51:41;;;;;;;19.70;13.80;;;23.60;99.90;;;;;;5050630;28;20252;-64
2023/09/02 14:54:16;;;;;;;21.50;12.85;;;23.80;99.90;;;;;;5068862;28;20205;-64
2023/09/02 14:56:44;;;;;;;19.25;13.55;;;23.80;99.90;;;;;;5046036;28;20727;-63
2023/09/02 14:59:20;;;;;;;16.50;12.68;;;24.00;99.90;;;;;;5049754;28;20253;-62
2023/09/02 15:01:48;;;;;;;18.00;13.38;;;24.40;99.90;;;;;;5067287;28;20244;-62
2023/09/02 15:04:17;;;;;;;16.48;11.82;;;24.60;99.90;;;;;;5050517;28;20242;-61
2023/09/02 15:06:45;;;;;;;14.25;11.68;;;24.80;99.90;;;;;;5068375;28;20187;-63
2023/09/02 15:09:30;;;;;;;15.80;11.88;;;24.80;99.90;;;;;;5050043;28;20666;-62
2023/09/02 15:11:58;;;;;;;15.18;11.15;;;24.80;99.90;;;;;;5068702;28;20573;-61